sensor_id;sensor_type;location;lat;lon;timestamp;P1;durP1;ratioP1;P2;durP2;ratioP2
59294;SDS011;45067;44.654;20.200;2023-05-29T00:01:00;19.02;;;12.95;;
59294;SDS011;45067;44.654;20.200;2023-05-29T00:03:27;17.35;;;13.45;;
59294;SDS011;45067;44.654;20.200;2023-05-29T00:05:53;18.85;;;12.70;;
59294;SDS011;45067;44.654;20.200;2023-05-29T00:08:20;19.60;;;13.43;;
59294;SDS011;45067;44.654;20.200;2023-05-29T00:10:46;18.85;;;13.30;;
59294;SDS011;45067;44.654;20.200;2023-05-29T00:13:12;17.55;;;12.82;;
59294;SDS011;45067;44.654;20.200;2023-05-29T00:15:38;20.42;;;13.55;;
59294;SDS011;45067;44.654;20.200;2023-05-29T00:18:04;17.83;;;12.88;;
59294;SDS011;45067;44.654;20.200;2023-05-29T00:20:30;17.40;;;13.23;;
59294;SDS011;45067;44.654;20.200;2023-05-29T00:22:59;20.85;;;13.30;;
59294;SDS011;45067;44.654;20.200;2023-05-29T00:25:26;19.70;;;13.82;;
59294;SDS011;45067;44.654;20.200;2023-05-29T00:27:53;18.98;;;14.93;;
59294;SDS011;45067;44.654;20.200;2023-05-29T00:30:19;21.67;;;14.73;;
59294;SDS011;45067;44.654;20.200;2023-05-29T00:33:00;17.60;;;13.23;;
59294;SDS011;45067;44.654;20.200;2023-05-29T00:35:26;16.88;;;12.55;;
59294;SDS011;45067;44.654;20.200;2023-05-29T00:37:52;18.35;;;13.93;;
59294;SDS011;45067;44.654;20.200;2023-05-29T00:40:18;23.55;;;15.02;;
59294;SDS011;45067;44.654;20.200;2023-05-29T00:42:44;19.25;;;13.18;;
59294;SDS011;45067;44.654;20.200;2023-05-29T00:45:11;19.83;;;13.45;;
59294;SDS011;45067;44.654;20.200;2023-05-29T00:47:38;20.75;;;13.45;;
59294;SDS011;45067;44.654;20.200;2023-05-29T00:50:05;17.65;;;13.38;;
59294;SDS011;45067;44.654;20.200;2023-05-29T00:52:31;19.17;;;14.13;;
59294;SDS011;45067;44.654;20.200;2023-05-29T00:54:58;21.48;;;15.05;;
59294;SDS011;45067;44.654;20.200;2023-05-29T00:57:26;21.25;;;15.65;;
59294;SDS011;45067;44.654;20.200;2023-05-29T00:59:53;19.48;;;14.90;;
59294;SDS011;45067;44.654;20.200;2023-05-29T01:02:19;20.13;;;13.82;;
59294;SDS011;45067;44.654;20.200;2023-05-29T01:04:46;17.08;;;13.00;;
59294;SDS011;45067;44.654;20.200;2023-05-29T01:07:12;18.42;;;13.95;;
59294;SDS011;45067;44.654;20.200;2023-05-29T01:09:39;22.85;;;14.93;;
59294;SDS011;45067;44.654;20.200;2023-05-29T01:20:44;22.65;;;13.98;;
59294;SDS011;45067;44.654;20.200;2023-05-29T01:28:14;18.45;;;14.05;;
59294;SDS011;45067;44.654;20.200;2023-05-29T01:30:41;19.67;;;13.75;;
59294;SDS011;45067;44.654;20.200;2023-05-29T01:33:08;23.45;;;13.80;;
59294;SDS011;45067;44.654;20.200;2023-05-29T01:35:35;23.65;;;14.50;;
59294;SDS011;45067;44.654;20.200;2023-05-29T01:38:01;19.45;;;13.63;;
59294;SDS011;45067;44.654;20.200;2023-05-29T01:40:27;18.05;;;13.02;;
59294;SDS011;45067;44.654;20.200;2023-05-29T01:42:53;22.70;;;14.70;;
59294;SDS011;45067;44.654;20.200;2023-05-29T01:45:19;20.70;;;13.95;;
59294;SDS011;45067;44.654;20.200;2023-05-29T01:47:46;21.38;;;14.73;;
59294;SDS011;45067;44.654;20.200;2023-05-29T01:50:13;22.90;;;14.93;;
59294;SDS011;45067;44.654;20.200;2023-05-29T01:52:41;21.80;;;15.23;;
59294;SDS011;45067;44.654;20.200;2023-05-29T01:55:07;19.38;;;14.57;;
59294;SDS011;45067;44.654;20.200;2023-05-29T01:57:33;21.52;;;14.48;;
59294;SDS011;45067;44.654;20.200;2023-05-29T02:00:01;24.88;;;15.65;;
59294;SDS011;45067;44.654;20.200;2023-05-29T02:02:29;24.52;;;14.32;;
59294;SDS011;45067;44.654;20.200;2023-05-29T02:04:56;20.95;;;13.90;;
59294;SDS011;45067;44.654;20.200;2023-05-29T02:07:22;23.38;;;14.52;;
59294;SDS011;45067;44.654;20.200;2023-05-29T02:09:48;22.80;;;14.55;;
59294;SDS011;45067;44.654;20.200;2023-05-29T02:12:14;19.92;;;14.75;;
59294;SDS011;45067;44.654;20.200;2023-05-29T02:14:40;21.17;;;14.50;;
59294;SDS011;45067;44.654;20.200;2023-05-29T02:17:06;22.77;;;14.13;;
59294;SDS011;45067;44.654;20.200;2023-05-29T02:19:32;21.35;;;14.70;;
59294;SDS011;45067;44.654;20.200;2023-05-29T02:21:58;21.88;;;14.18;;
59294;SDS011;45067;44.654;20.200;2023-05-29T02:24:24;20.40;;;14.13;;
59294;SDS011;45067;44.654;20.200;2023-05-29T02:26:50;22.83;;;14.77;;
59294;SDS011;45067;44.654;20.200;2023-05-29T02:29:16;16.95;;;13.10;;
59294;SDS011;45067;44.654;20.200;2023-05-29T02:31:42;19.98;;;13.88;;
59294;SDS011;45067;44.654;20.200;2023-05-29T02:34:09;18.75;;;13.70;;
59294;SDS011;45067;44.654;20.200;2023-05-29T02:36:35;17.90;;;13.45;;
59294;SDS011;45067;44.654;20.200;2023-05-29T02:39:02;19.85;;;14.05;;
59294;SDS011;45067;44.654;20.200;2023-05-29T02:41:28;18.38;;;12.88;;
59294;SDS011;45067;44.654;20.200;2023-05-29T02:43:54;20.88;;;13.77;;
59294;SDS011;45067;44.654;20.200;2023-05-29T02:46:20;23.73;;;13.05;;
59294;SDS011;45067;44.654;20.200;2023-05-29T02:48:47;20.77;;;12.35;;
59294;SDS011;45067;44.654;20.200;2023-05-29T02:51:13;24.08;;;13.23;;
59294;SDS011;45067;44.654;20.200;2023-05-29T02:53:39;21.60;;;14.63;;
59294;SDS011;45067;44.654;20.200;2023-05-29T02:56:06;19.50;;;13.80;;
59294;SDS011;45067;44.654;20.200;2023-05-29T02:58:37;21.92;;;14.85;;
59294;SDS011;45067;44.654;20.200;2023-05-29T03:01:03;25.10;;;14.73;;
59294;SDS011;45067;44.654;20.200;2023-05-29T03:03:29;23.85;;;15.93;;
59294;SDS011;45067;44.654;20.200;2023-05-29T03:05:55;21.33;;;14.75;;
59294;SDS011;45067;44.654;20.200;2023-05-29T03:08:22;28.35;;;16.25;;
59294;SDS011;45067;44.654;20.200;2023-05-29T03:10:49;21.33;;;14.10;;
59294;SDS011;45067;44.654;20.200;2023-05-29T03:13:17;22.42;;;15.25;;
59294;SDS011;45067;44.654;20.200;2023-05-29T03:15:43;23.05;;;15.50;;
59294;SDS011;45067;44.654;20.200;2023-05-29T03:18:10;22.70;;;15.23;;
59294;SDS011;45067;44.654;20.200;2023-05-29T03:20:36;23.00;;;15.02;;
59294;SDS011;45067;44.654;20.200;2023-05-29T03:23:02;24.02;;;15.18;;
59294;SDS011;45067;44.654;20.200;2023-05-29T03:25:28;23.13;;;14.63;;
59294;SDS011;45067;44.654;20.200;2023-05-29T03:27:55;22.83;;;15.98;;
59294;SDS011;45067;44.654;20.200;2023-05-29T03:30:21;23.15;;;16.23;;
59294;SDS011;45067;44.654;20.200;2023-05-29T03:32:47;24.75;;;15.45;;
59294;SDS011;45067;44.654;20.200;2023-05-29T03:35:13;25.55;;;17.10;;
59294;SDS011;45067;44.654;20.200;2023-05-29T03:37:39;25.40;;;16.08;;
59294;SDS011;45067;44.654;20.200;2023-05-29T03:40:05;21.45;;;15.75;;
59294;SDS011;45067;44.654;20.200;2023-05-29T03:42:32;24.75;;;16.38;;
59294;SDS011;45067;44.654;20.200;2023-05-29T03:44:58;23.73;;;16.40;;
59294;SDS011;45067;44.654;20.200;2023-05-29T03:47:24;26.65;;;17.10;;
59294;SDS011;45067;44.654;20.200;2023-05-29T03:49:50;26.40;;;17.15;;
59294;SDS011;45067;44.654;20.200;2023-05-29T03:52:16;23.63;;;15.90;;
59294;SDS011;45067;44.654;20.200;2023-05-29T03:54:42;25.90;;;17.02;;
59294;SDS011;45067;44.654;20.200;2023-05-29T03:57:09;25.17;;;17.20;;
59294;SDS011;45067;44.654;20.200;2023-05-29T03:59:36;28.40;;;16.08;;
59294;SDS011;45067;44.654;20.200;2023-05-29T04:02:02;22.75;;;13.75;;
59294;SDS011;45067;44.654;20.200;2023-05-29T04:04:29;22.65;;;15.50;;
59294;SDS011;45067;44.654;20.200;2023-05-29T04:06:55;25.00;;;15.48;;
59294;SDS011;45067;44.654;20.200;2023-05-29T04:09:21;23.52;;;15.48;;
59294;SDS011;45067;44.654;20.200;2023-05-29T04:11:47;24.77;;;16.83;;
59294;SDS011;45067;44.654;20.200;2023-05-29T04:14:13;22.65;;;15.18;;
59294;SDS011;45067;44.654;20.200;2023-05-29T04:16:40;20.85;;;15.02;;
59294;SDS011;45067;44.654;20.200;2023-05-29T04:19:06;23.33;;;14.45;;
59294;SDS011;45067;44.654;20.200;2023-05-29T04:21:32;22.73;;;14.52;;
59294;SDS011;45067;44.654;20.200;2023-05-29T04:23:58;24.63;;;15.65;;
59294;SDS011;45067;44.654;20.200;2023-05-29T04:26:24;27.58;;;17.52;;
59294;SDS011;45067;44.654;20.200;2023-05-29T04:28:52;24.45;;;15.95;;
59294;SDS011;45067;44.654;20.200;2023-05-29T04:31:22;21.20;;;14.93;;
59294;SDS011;45067;44.654;20.200;2023-05-29T04:33:50;21.02;;;15.60;;
59294;SDS011;45067;44.654;20.200;2023-05-29T04:36:20;27.45;;;15.82;;
59294;SDS011;45067;44.654;20.200;2023-05-29T04:38:48;20.83;;;14.93;;
59294;SDS011;45067;44.654;20.200;2023-05-29T04:41:16;22.17;;;14.52;;
59294;SDS011;45067;44.654;20.200;2023-05-29T04:43:42;28.77;;;15.88;;
59294;SDS011;45067;44.654;20.200;2023-05-29T04:46:09;21.45;;;15.40;;
59294;SDS011;45067;44.654;20.200;2023-05-29T04:48:38;19.52;;;14.55;;
59294;SDS011;45067;44.654;20.200;2023-05-29T04:51:07;23.45;;;14.32;;
59294;SDS011;45067;44.654;20.200;2023-05-29T04:53:36;19.33;;;14.10;;
59294;SDS011;45067;44.654;20.200;2023-05-29T04:56:02;22.15;;;14.43;;
59294;SDS011;45067;44.654;20.200;2023-05-29T04:58:28;21.98;;;15.20;;
59294;SDS011;45067;44.654;20.200;2023-05-29T05:00:54;21.02;;;14.95;;
59294;SDS011;45067;44.654;20.200;2023-05-29T05:03:32;28.83;;;16.30;;
59294;SDS011;45067;44.654;20.200;2023-05-29T05:05:59;24.02;;;16.73;;
59294;SDS011;45067;44.654;20.200;2023-05-29T05:08:27;23.90;;;17.25;;
59294;SDS011;45067;44.654;20.200;2023-05-29T05:10:53;23.77;;;17.08;;
59294;SDS011;45067;44.654;20.200;2023-05-29T05:13:19;23.58;;;16.65;;
59294;SDS011;45067;44.654;20.200;2023-05-29T05:15:45;25.35;;;17.05;;
59294;SDS011;45067;44.654;20.200;2023-05-29T05:18:11;23.13;;;17.20;;
59294;SDS011;45067;44.654;20.200;2023-05-29T05:20:37;22.65;;;16.67;;
59294;SDS011;45067;44.654;20.200;2023-05-29T05:23:03;22.60;;;16.23;;
59294;SDS011;45067;44.654;20.200;2023-05-29T05:25:29;23.45;;;15.82;;
59294;SDS011;45067;44.654;20.200;2023-05-29T05:27:55;26.33;;;16.45;;
59294;SDS011;45067;44.654;20.200;2023-05-29T05:30:21;21.85;;;15.70;;
59294;SDS011;45067;44.654;20.200;2023-05-29T05:32:47;22.90;;;15.48;;
59294;SDS011;45067;44.654;20.200;2023-05-29T05:35:13;19.55;;;14.70;;
59294;SDS011;45067;44.654;20.200;2023-05-29T05:37:40;18.42;;;14.50;;
59294;SDS011;45067;44.654;20.200;2023-05-29T05:40:06;19.52;;;14.60;;
59294;SDS011;45067;44.654;20.200;2023-05-29T05:42:33;22.90;;;15.57;;
59294;SDS011;45067;44.654;20.200;2023-05-29T05:45:00;24.23;;;17.13;;
59294;SDS011;45067;44.654;20.200;2023-05-29T05:47:27;25.77;;;17.38;;
59294;SDS011;45067;44.654;20.200;2023-05-29T05:49:54;28.80;;;18.02;;
59294;SDS011;45067;44.654;20.200;2023-05-29T05:52:20;24.60;;;17.25;;
59294;SDS011;45067;44.654;20.200;2023-05-29T05:54:46;27.38;;;17.23;;
59294;SDS011;45067;44.654;20.200;2023-05-29T05:57:12;25.67;;;18.23;;
59294;SDS011;45067;44.654;20.200;2023-05-29T05:59:38;25.83;;;19.25;;
59294;SDS011;45067;44.654;20.200;2023-05-29T06:02:04;23.58;;;18.70;;
59294;SDS011;45067;44.654;20.200;2023-05-29T06:04:30;28.30;;;19.17;;
59294;SDS011;45067;44.654;20.200;2023-05-29T06:06:56;30.23;;;20.90;;
59294;SDS011;45067;44.654;20.200;2023-05-29T06:09:22;31.33;;;21.20;;
59294;SDS011;45067;44.654;20.200;2023-05-29T06:11:50;30.98;;;20.75;;
59294;SDS011;45067;44.654;20.200;2023-05-29T06:14:16;29.77;;;21.80;;
59294;SDS011;45067;44.654;20.200;2023-05-29T06:16:42;30.02;;;21.20;;
59294;SDS011;45067;44.654;20.200;2023-05-29T06:19:08;29.00;;;19.85;;
59294;SDS011;45067;44.654;20.200;2023-05-29T06:21:35;28.48;;;20.85;;
59294;SDS011;45067;44.654;20.200;2023-05-29T06:24:01;26.52;;;20.60;;
59294;SDS011;45067;44.654;20.200;2023-05-29T06:26:27;27.83;;;20.92;;
59294;SDS011;45067;44.654;20.200;2023-05-29T06:28:53;30.67;;;21.50;;
59294;SDS011;45067;44.654;20.200;2023-05-29T06:31:19;30.58;;;21.00;;
59294;SDS011;45067;44.654;20.200;2023-05-29T06:33:45;29.25;;;22.27;;
59294;SDS011;45067;44.654;20.200;2023-05-29T06:36:11;30.00;;;21.02;;
59294;SDS011;45067;44.654;20.200;2023-05-29T06:38:38;28.95;;;20.70;;
59294;SDS011;45067;44.654;20.200;2023-05-29T06:41:05;30.27;;;21.08;;
59294;SDS011;45067;44.654;20.200;2023-05-29T06:43:31;26.65;;;20.63;;
59294;SDS011;45067;44.654;20.200;2023-05-29T06:45:57;27.50;;;20.50;;
59294;SDS011;45067;44.654;20.200;2023-05-29T06:48:23;29.88;;;20.13;;
59294;SDS011;45067;44.654;20.200;2023-05-29T06:50:49;28.13;;;21.35;;
59294;SDS011;45067;44.654;20.200;2023-05-29T06:53:15;28.25;;;21.65;;
59294;SDS011;45067;44.654;20.200;2023-05-29T06:55:41;32.30;;;20.77;;
59294;SDS011;45067;44.654;20.200;2023-05-29T06:58:07;27.95;;;20.80;;
59294;SDS011;45067;44.654;20.200;2023-05-29T07:00:33;26.15;;;19.80;;
59294;SDS011;45067;44.654;20.200;2023-05-29T07:02:59;31.50;;;21.92;;
59294;SDS011;45067;44.654;20.200;2023-05-29T07:05:29;27.38;;;21.13;;
59294;SDS011;45067;44.654;20.200;2023-05-29T07:07:55;29.25;;;20.95;;
59294;SDS011;45067;44.654;20.200;2023-05-29T07:10:21;27.40;;;20.67;;
59294;SDS011;45067;44.654;20.200;2023-05-29T07:12:47;27.80;;;19.95;;
59294;SDS011;45067;44.654;20.200;2023-05-29T07:15:13;24.30;;;18.95;;
59294;SDS011;45067;44.654;20.200;2023-05-29T07:17:39;24.35;;;18.13;;
59294;SDS011;45067;44.654;20.200;2023-05-29T07:20:05;24.52;;;18.90;;
59294;SDS011;45067;44.654;20.200;2023-05-29T07:22:33;25.55;;;19.05;;
59294;SDS011;45067;44.654;20.200;2023-05-29T07:24:59;24.50;;;18.40;;
59294;SDS011;45067;44.654;20.200;2023-05-29T07:27:26;26.20;;;19.08;;
59294;SDS011;45067;44.654;20.200;2023-05-29T07:29:52;23.30;;;19.08;;
59294;SDS011;45067;44.654;20.200;2023-05-29T07:32:18;24.13;;;19.40;;
59294;SDS011;45067;44.654;20.200;2023-05-29T07:34:44;27.90;;;20.33;;
59294;SDS011;45067;44.654;20.200;2023-05-29T07:37:10;26.77;;;19.65;;
59294;SDS011;45067;44.654;20.200;2023-05-29T07:39:37;27.42;;;18.88;;
59294;SDS011;45067;44.654;20.200;2023-05-29T07:42:03;27.35;;;20.45;;
59294;SDS011;45067;44.654;20.200;2023-05-29T07:44:31;24.02;;;18.55;;
59294;SDS011;45067;44.654;20.200;2023-05-29T07:46:57;23.52;;;17.83;;
59294;SDS011;45067;44.654;20.200;2023-05-29T07:49:23;22.92;;;17.60;;
59294;SDS011;45067;44.654;20.200;2023-05-29T07:51:49;22.70;;;17.67;;
59294;SDS011;45067;44.654;20.200;2023-05-29T07:54:15;25.85;;;19.52;;
59294;SDS011;45067;44.654;20.200;2023-05-29T07:59:12;26.48;;;18.45;;
59294;SDS011;45067;44.654;20.200;2023-05-29T08:01:38;25.70;;;19.27;;
59294;SDS011;45067;44.654;20.200;2023-05-29T08:04:08;24.50;;;18.70;;
59294;SDS011;45067;44.654;20.200;2023-05-29T08:06:34;26.20;;;19.95;;
59294;SDS011;45067;44.654;20.200;2023-05-29T08:09:01;26.15;;;20.40;;
59294;SDS011;45067;44.654;20.200;2023-05-29T08:11:28;24.73;;;19.35;;
59294;SDS011;45067;44.654;20.200;2023-05-29T08:13:54;28.70;;;21.00;;
59294;SDS011;45067;44.654;20.200;2023-05-29T08:16:20;23.50;;;19.15;;
59294;SDS011;45067;44.654;20.200;2023-05-29T08:18:47;25.88;;;18.98;;
59294;SDS011;45067;44.654;20.200;2023-05-29T08:21:13;24.85;;;18.98;;
59294;SDS011;45067;44.654;20.200;2023-05-29T08:23:39;23.65;;;17.92;;
59294;SDS011;45067;44.654;20.200;2023-05-29T08:26:07;27.98;;;19.60;;
59294;SDS011;45067;44.654;20.200;2023-05-29T08:28:33;25.65;;;17.67;;
59294;SDS011;45067;44.654;20.200;2023-05-29T08:30:59;23.90;;;19.05;;
59294;SDS011;45067;44.654;20.200;2023-05-29T08:33:25;22.23;;;17.83;;
59294;SDS011;45067;44.654;20.200;2023-05-29T08:35:51;21.00;;;16.45;;
59294;SDS011;45067;44.654;20.200;2023-05-29T08:38:17;20.70;;;15.20;;
59294;SDS011;45067;44.654;20.200;2023-05-29T08:40:46;17.50;;;12.75;;
59294;SDS011;45067;44.654;20.200;2023-05-29T08:43:14;17.08;;;13.15;;
59294;SDS011;45067;44.654;20.200;2023-05-29T08:45:44;18.58;;;13.82;;
59294;SDS011;45067;44.654;20.200;2023-05-29T08:48:11;16.05;;;11.57;;
59294;SDS011;45067;44.654;20.200;2023-05-29T08:50:43;16.08;;;11.80;;
59294;SDS011;45067;44.654;20.200;2023-05-29T08:53:13;14.68;;;10.55;;
59294;SDS011;45067;44.654;20.200;2023-05-29T08:55:40;12.65;;;9.23;;
59294;SDS011;45067;44.654;20.200;2023-05-29T08:58:06;16.83;;;11.57;;
59294;SDS011;45067;44.654;20.200;2023-05-29T09:00:33;16.70;;;12.05;;
59294;SDS011;45067;44.654;20.200;2023-05-29T09:02:59;14.48;;;10.65;;
59294;SDS011;45067;44.654;20.200;2023-05-29T09:05:26;15.48;;;11.50;;
59294;SDS011;45067;44.654;20.200;2023-05-29T09:07:53;16.17;;;11.48;;
59294;SDS011;45067;44.654;20.200;2023-05-29T09:10:19;19.40;;;13.65;;
59294;SDS011;45067;44.654;20.200;2023-05-29T09:12:46;18.00;;;13.20;;
59294;SDS011;45067;44.654;20.200;2023-05-29T09:15:18;16.25;;;11.57;;
59294;SDS011;45067;44.654;20.200;2023-05-29T09:17:51;15.82;;;11.18;;
59294;SDS011;45067;44.654;20.200;2023-05-29T09:20:18;16.42;;;11.43;;
59294;SDS011;45067;44.654;20.200;2023-05-29T09:23:06;14.18;;;11.25;;
59294;SDS011;45067;44.654;20.200;2023-05-29T09:25:31;15.30;;;10.93;;
59294;SDS011;45067;44.654;20.200;2023-05-29T09:28:01;15.02;;;11.15;;
59294;SDS011;45067;44.654;20.200;2023-05-29T09:33:01;12.25;;;9.93;;
59294;SDS011;45067;44.654;20.200;2023-05-29T09:38:00;15.95;;;11.10;;
59294;SDS011;45067;44.654;20.200;2023-05-29T09:40:26;13.20;;;10.48;;
59294;SDS011;45067;44.654;20.200;2023-05-29T09:43:13;12.27;;;10.52;;
59294;SDS011;45067;44.654;20.200;2023-05-29T09:45:43;15.15;;;10.38;;
59294;SDS011;45067;44.654;20.200;2023-05-29T09:48:13;12.73;;;10.52;;
59294;SDS011;45067;44.654;20.200;2023-05-29T09:53:18;16.60;;;11.98;;
59294;SDS011;45067;44.654;20.200;2023-05-29T09:55:44;16.35;;;11.15;;
59294;SDS011;45067;44.654;20.200;2023-05-29T09:58:13;15.13;;;10.63;;
59294;SDS011;45067;44.654;20.200;2023-05-29T10:00:40;14.73;;;9.88;;
59294;SDS011;45067;44.654;20.200;2023-05-29T10:03:07;14.40;;;10.55;;
59294;SDS011;45067;44.654;20.200;2023-05-29T10:05:33;14.10;;;10.18;;
59294;SDS011;45067;44.654;20.200;2023-05-29T10:08:00;12.05;;;9.90;;
59294;SDS011;45067;44.654;20.200;2023-05-29T10:10:27;14.27;;;11.05;;
59294;SDS011;45067;44.654;20.200;2023-05-29T10:12:55;16.10;;;11.55;;
59294;SDS011;45067;44.654;20.200;2023-05-29T10:15:22;16.23;;;11.68;;
59294;SDS011;45067;44.654;20.200;2023-05-29T10:17:50;16.38;;;12.43;;
59294;SDS011;45067;44.654;20.200;2023-05-29T10:20:17;16.27;;;11.73;;
59294;SDS011;45067;44.654;20.200;2023-05-29T10:22:45;16.38;;;11.27;;
59294;SDS011;45067;44.654;20.200;2023-05-29T10:25:13;18.80;;;11.82;;
59294;SDS011;45067;44.654;20.200;2023-05-29T10:27:40;14.68;;;11.35;;
59294;SDS011;45067;44.654;20.200;2023-05-29T10:35:20;14.90;;;9.85;;
59294;SDS011;45067;44.654;20.200;2023-05-29T10:38:02;13.95;;;9.13;;
59294;SDS011;45067;44.654;20.200;2023-05-29T10:40:28;21.40;;;11.23;;
59294;SDS011;45067;44.654;20.200;2023-05-29T10:42:54;19.77;;;13.82;;
59294;SDS011;45067;44.654;20.200;2023-05-29T10:48:48;21.95;;;10.93;;
59294;SDS011;45067;44.654;20.200;2023-05-29T10:50:53;18.77;;;10.50;;
59294;SDS011;45067;44.654;20.200;2023-05-29T10:53:23;17.45;;;9.48;;
59294;SDS011;45067;44.654;20.200;2023-05-29T10:55:51;12.70;;;7.93;;
59294;SDS011;45067;44.654;20.200;2023-05-29T10:58:21;13.63;;;8.35;;
59294;SDS011;45067;44.654;20.200;2023-05-29T11:00:50;14.57;;;9.75;;
59294;SDS011;45067;44.654;20.200;2023-05-29T11:03:23;20.33;;;12.63;;
59294;SDS011;45067;44.654;20.200;2023-05-29T11:06:00;15.05;;;10.55;;
59294;SDS011;45067;44.654;20.200;2023-05-29T11:08:43;12.73;;;9.27;;
59294;SDS011;45067;44.654;20.200;2023-05-29T11:11:14;13.60;;;8.75;;
59294;SDS011;45067;44.654;20.200;2023-05-29T11:13:40;13.02;;;8.60;;
59294;SDS011;45067;44.654;20.200;2023-05-29T11:16:10;11.73;;;8.67;;
59294;SDS011;45067;44.654;20.200;2023-05-29T11:18:44;12.65;;;8.90;;
59294;SDS011;45067;44.654;20.200;2023-05-29T11:24:01;13.93;;;9.60;;
59294;SDS011;45067;44.654;20.200;2023-05-29T11:26:31;15.05;;;9.70;;
59294;SDS011;45067;44.654;20.200;2023-05-29T11:29:00;14.85;;;11.52;;
59294;SDS011;45067;44.654;20.200;2023-05-29T11:31:27;17.75;;;12.60;;
59294;SDS011;45067;44.654;20.200;2023-05-29T11:33:58;13.10;;;11.18;;
59294;SDS011;45067;44.654;20.200;2023-05-29T11:36:25;16.48;;;11.52;;
59294;SDS011;45067;44.654;20.200;2023-05-29T11:38:52;17.20;;;12.40;;
59294;SDS011;45067;44.654;20.200;2023-05-29T11:41:21;20.52;;;14.43;;
59294;SDS011;45067;44.654;20.200;2023-05-29T11:46:23;13.02;;;11.65;;
59294;SDS011;45067;44.654;20.200;2023-05-29T11:48:51;13.95;;;12.48;;
59294;SDS011;45067;44.654;20.200;2023-05-29T11:51:17;15.98;;;11.85;;
59294;SDS011;45067;44.654;20.200;2023-05-29T11:53:43;15.50;;;12.43;;
59294;SDS011;45067;44.654;20.200;2023-05-29T11:56:12;19.20;;;11.82;;
59294;SDS011;45067;44.654;20.200;2023-05-29T11:58:39;12.95;;;11.43;;
59294;SDS011;45067;44.654;20.200;2023-05-29T12:01:05;14.55;;;13.05;;
59294;SDS011;45067;44.654;20.200;2023-05-29T12:06:05;19.13;;;13.95;;
59294;SDS011;45067;44.654;20.200;2023-05-29T12:08:31;17.80;;;13.15;;
59294;SDS011;45067;44.654;20.200;2023-05-29T12:10:58;20.60;;;12.40;;
59294;SDS011;45067;44.654;20.200;2023-05-29T12:13:24;13.52;;;10.40;;
59294;SDS011;45067;44.654;20.200;2023-05-29T12:15:52;13.82;;;11.65;;
59294;SDS011;45067;44.654;20.200;2023-05-29T12:18:18;15.88;;;11.10;;
59294;SDS011;45067;44.654;20.200;2023-05-29T12:20:44;16.30;;;10.70;;
59294;SDS011;45067;44.654;20.200;2023-05-29T12:23:11;21.02;;;13.18;;
59294;SDS011;45067;44.654;20.200;2023-05-29T12:25:37;14.55;;;11.57;;
59294;SDS011;45067;44.654;20.200;2023-05-29T12:28:03;13.65;;;10.18;;
59294;SDS011;45067;44.654;20.200;2023-05-29T12:30:30;12.18;;;10.07;;
59294;SDS011;45067;44.654;20.200;2023-05-29T12:32:56;11.68;;;9.95;;
59294;SDS011;45067;44.654;20.200;2023-05-29T12:35:24;22.60;;;15.50;;
59294;SDS011;45067;44.654;20.200;2023-05-29T12:38:01;18.52;;;13.32;;
59294;SDS011;45067;44.654;20.200;2023-05-29T12:40:27;14.10;;;11.35;;
59294;SDS011;45067;44.654;20.200;2023-05-29T12:42:58;21.17;;;12.68;;
59294;SDS011;45067;44.654;20.200;2023-05-29T12:45:26;13.27;;;9.00;;
59294;SDS011;45067;44.654;20.200;2023-05-29T12:47:57;12.82;;;10.35;;
59294;SDS011;45067;44.654;20.200;2023-05-29T12:50:27;14.00;;;11.15;;
59294;SDS011;45067;44.654;20.200;2023-05-29T12:52:54;12.35;;;9.52;;
59294;SDS011;45067;44.654;20.200;2023-05-29T12:55:20;11.00;;;8.77;;
59294;SDS011;45067;44.654;20.200;2023-05-29T12:57:46;10.75;;;9.02;;
59294;SDS011;45067;44.654;20.200;2023-05-29T13:00:13;13.40;;;9.63;;
59294;SDS011;45067;44.654;20.200;2023-05-29T13:02:39;17.40;;;11.60;;
59294;SDS011;45067;44.654;20.200;2023-05-29T13:05:05;11.90;;;9.30;;
59294;SDS011;45067;44.654;20.200;2023-05-29T13:07:32;13.93;;;10.65;;
59294;SDS011;45067;44.654;20.200;2023-05-29T13:09:59;13.07;;;11.10;;
59294;SDS011;45067;44.654;20.200;2023-05-29T13:12:26;12.98;;;9.82;;
59294;SDS011;45067;44.654;20.200;2023-05-29T13:14:53;12.38;;;9.65;;
59294;SDS011;45067;44.654;20.200;2023-05-29T13:17:22;11.30;;;9.40;;
59294;SDS011;45067;44.654;20.200;2023-05-29T13:19:48;15.35;;;12.20;;
59294;SDS011;45067;44.654;20.200;2023-05-29T13:22:14;12.35;;;9.20;;
59294;SDS011;45067;44.654;20.200;2023-05-29T13:24:41;13.85;;;9.45;;
59294;SDS011;45067;44.654;20.200;2023-05-29T13:27:07;11.50;;;8.30;;
59294;SDS011;45067;44.654;20.200;2023-05-29T13:29:34;10.13;;;5.75;;
59294;SDS011;45067;44.654;20.200;2023-05-29T13:32:00;6.97;;;4.70;;
59294;SDS011;45067;44.654;20.200;2023-05-29T13:34:26;7.50;;;5.85;;
59294;SDS011;45067;44.654;20.200;2023-05-29T13:36:56;9.82;;;5.97;;
59294;SDS011;45067;44.654;20.200;2023-05-29T13:39:22;11.02;;;4.47;;
59294;SDS011;45067;44.654;20.200;2023-05-29T13:41:49;8.55;;;5.13;;
59294;SDS011;45067;44.654;20.200;2023-05-29T13:44:16;8.00;;;5.70;;
59294;SDS011;45067;44.654;20.200;2023-05-29T13:46:42;17.92;;;6.60;;
59294;SDS011;45067;44.654;20.200;2023-05-29T13:49:08;7.32;;;4.78;;
59294;SDS011;45067;44.654;20.200;2023-05-29T13:51:34;8.00;;;5.70;;
59294;SDS011;45067;44.654;20.200;2023-05-29T13:54:01;14.02;;;6.57;;
59294;SDS011;45067;44.654;20.200;2023-05-29T13:56:28;11.32;;;6.95;;
59294;SDS011;45067;44.654;20.200;2023-05-29T13:58:54;11.48;;;6.40;;
59294;SDS011;45067;44.654;20.200;2023-05-29T14:01:21;7.72;;;5.70;;
59294;SDS011;45067;44.654;20.200;2023-05-29T14:03:49;8.50;;;5.93;;
59294;SDS011;45067;44.654;20.200;2023-05-29T14:06:15;10.98;;;6.18;;
59294;SDS011;45067;44.654;20.200;2023-05-29T14:08:41;8.10;;;6.30;;
59294;SDS011;45067;44.654;20.200;2023-05-29T14:11:07;8.40;;;5.53;;
59294;SDS011;45067;44.654;20.200;2023-05-29T14:13:33;9.95;;;6.30;;
59294;SDS011;45067;44.654;20.200;2023-05-29T14:15:59;9.07;;;6.28;;
59294;SDS011;45067;44.654;20.200;2023-05-29T14:18:25;8.43;;;6.40;;
59294;SDS011;45067;44.654;20.200;2023-05-29T14:20:51;11.13;;;6.18;;
59294;SDS011;45067;44.654;20.200;2023-05-29T14:23:18;9.98;;;6.47;;
59294;SDS011;45067;44.654;20.200;2023-05-29T14:25:44;12.45;;;7.78;;
59294;SDS011;45067;44.654;20.200;2023-05-29T14:28:11;13.93;;;7.97;;
59294;SDS011;45067;44.654;20.200;2023-05-29T14:30:37;9.05;;;7.05;;
59294;SDS011;45067;44.654;20.200;2023-05-29T14:33:03;14.57;;;9.75;;
59294;SDS011;45067;44.654;20.200;2023-05-29T14:35:30;17.85;;;12.27;;
59294;SDS011;45067;44.654;20.200;2023-05-29T14:37:56;11.93;;;7.93;;
59294;SDS011;45067;44.654;20.200;2023-05-29T14:40:22;11.25;;;6.78;;
59294;SDS011;45067;44.654;20.200;2023-05-29T14:42:49;15.95;;;10.95;;
59294;SDS011;45067;44.654;20.200;2023-05-29T14:45:15;12.52;;;7.95;;
59294;SDS011;45067;44.654;20.200;2023-05-29T14:47:42;8.40;;;6.07;;
59294;SDS011;45067;44.654;20.200;2023-05-29T14:50:08;9.40;;;6.53;;